sensor_id;sensor_type;location;lat;lon;timestamp;P1;durP1;ratioP1;P2;durP2;ratioP2
8993;SDS011;4532;50.886;4.700;2023-04-28T00:00:26;17.43;;;13.80;;
8993;SDS011;4532;50.886;4.700;2023-04-28T00:02:58;22.23;;;14.50;;
8993;SDS011;4532;50.886;4.700;2023-04-28T00:05:31;20.67;;;14.93;;
8993;SDS011;4532;50.886;4.700;2023-04-28T00:08:01;18.57;;;14.53;;
8993;SDS011;4532;50.886;4.700;2023-04-28T00:10:32;19.37;;;14.13;;
8993;SDS011;4532;50.886;4.700;2023-04-28T00:13:02;20.93;;;14.73;;
8993;SDS011;4532;50.886;4.700;2023-04-28T00:15:29;20.77;;;15.20;;
8993;SDS011;4532;50.886;4.700;2023-04-28T00:17:58;20.47;;;15.57;;
8993;SDS011;4532;50.886;4.700;2023-04-28T00:20:28;20.37;;;14.73;;
8993;SDS011;4532;50.886;4.700;2023-04-28T00:22:55;19.60;;;15.07;;
8993;SDS011;4532;50.886;4.700;2023-04-28T00:25:26;20.57;;;15.00;;
8993;SDS011;4532;50.886;4.700;2023-04-28T00:27:56;21.13;;;14.73;;
8993;SDS011;4532;50.886;4.700;2023-04-28T00:30:30;21.80;;;15.07;;
8993;SDS011;4532;50.886;4.700;2023-04-28T00:32:57;19.17;;;15.03;;
8993;SDS011;4532;50.886;4.700;2023-04-28T00:35:29;23.08;;;16.33;;
8993;SDS011;4532;50.886;4.700;2023-04-28T00:37:57;22.27;;;15.50;;
8993;SDS011;4532;50.886;4.700;2023-04-28T00:40:31;21.07;;;14.67;;
8993;SDS011;4532;50.886;4.700;2023-04-28T00:43:02;18.93;;;15.20;;
8993;SDS011;4532;50.886;4.700;2023-04-28T00:45:34;20.20;;;16.20;;
8993;SDS011;4532;50.886;4.700;2023-04-28T00:48:06;20.90;;;15.53;;
8993;SDS011;4532;50.886;4.700;2023-04-28T00:50:35;20.10;;;16.13;;
8993;SDS011;4532;50.886;4.700;2023-04-28T00:53:06;22.70;;;16.57;;
8993;SDS011;4532;50.886;4.700;2023-04-28T00:55:36;19.52;;;16.35;;
8993;SDS011;4532;50.886;4.700;2023-04-28T00:58:06;20.80;;;15.63;;
8993;SDS011;4532;50.886;4.700;2023-04-28T01:00:33;21.07;;;15.70;;
8993;SDS011;4532;50.886;4.700;2023-04-28T01:03:01;19.97;;;15.40;;
8993;SDS011;4532;50.886;4.700;2023-04-28T01:05:28;22.17;;;15.70;;
8993;SDS011;4532;50.886;4.700;2023-04-28T01:08:01;19.87;;;16.03;;
8993;SDS011;4532;50.886;4.700;2023-04-28T01:10:33;22.00;;;15.80;;
8993;SDS011;4532;50.886;4.700;2023-04-28T01:13:05;20.83;;;16.30;;
8993;SDS011;4532;50.886;4.700;2023-04-28T01:15:35;22.47;;;17.87;;
8993;SDS011;4532;50.886;4.700;2023-04-28T01:18:04;22.07;;;16.73;;
8993;SDS011;4532;50.886;4.700;2023-04-28T01:20:31;23.33;;;16.53;;
8993;SDS011;4532;50.886;4.700;2023-04-28T01:22:58;24.37;;;17.80;;
8993;SDS011;4532;50.886;4.700;2023-04-28T01:25:28;22.90;;;17.10;;
8993;SDS011;4532;50.886;4.700;2023-04-28T01:27:55;21.00;;;16.47;;
8993;SDS011;4532;50.886;4.700;2023-04-28T01:30:24;23.93;;;16.87;;
8993;SDS011;4532;50.886;4.700;2023-04-28T01:32:52;20.73;;;17.13;;
8993;SDS011;4532;50.886;4.700;2023-04-28T01:35:24;24.27;;;16.70;;
8993;SDS011;4532;50.886;4.700;2023-04-28T01:37:51;21.53;;;16.13;;
8993;SDS011;4532;50.886;4.700;2023-04-28T01:40:23;22.30;;;17.53;;
8993;SDS011;4532;50.886;4.700;2023-04-28T01:42:55;18.83;;;15.43;;
8993;SDS011;4532;50.886;4.700;2023-04-28T01:45:26;23.47;;;16.97;;
8993;SDS011;4532;50.886;4.700;2023-04-28T01:47:55;22.07;;;16.33;;
8993;SDS011;4532;50.886;4.700;2023-04-28T01:50:25;21.50;;;16.23;;
8993;SDS011;4532;50.886;4.700;2023-04-28T01:52:52;19.20;;;15.77;;
8993;SDS011;4532;50.886;4.700;2023-04-28T01:55:22;22.13;;;16.53;;
8993;SDS011;4532;50.886;4.700;2023-04-28T01:57:51;22.07;;;15.70;;
8993;SDS011;4532;50.886;4.700;2023-04-28T02:00:28;19.93;;;15.73;;
8993;SDS011;4532;50.886;4.700;2023-04-28T02:02:58;20.77;;;15.57;;
8993;SDS011;4532;50.886;4.700;2023-04-28T02:05:25;20.33;;;15.90;;
8993;SDS011;4532;50.886;4.700;2023-04-28T02:07:52;21.77;;;15.77;;
8993;SDS011;4532;50.886;4.700;2023-04-28T02:10:22;23.67;;;16.50;;
8993;SDS011;4532;50.886;4.700;2023-04-28T02:12:54;20.33;;;15.50;;
8993;SDS011;4532;50.886;4.700;2023-04-28T02:15:21;22.67;;;16.60;;
8993;SDS011;4532;50.886;4.700;2023-04-28T02:17:50;21.90;;;15.67;;
8993;SDS011;4532;50.886;4.700;2023-04-28T02:20:20;19.50;;;14.77;;
8993;SDS011;4532;50.886;4.700;2023-04-28T02:22:49;19.50;;;15.33;;
8993;SDS011;4532;50.886;4.700;2023-04-28T02:25:19;21.37;;;15.53;;
8993;SDS011;4532;50.886;4.700;2023-04-28T02:27:46;20.00;;;14.70;;
8993;SDS011;4532;50.886;4.700;2023-04-28T02:30:15;18.83;;;14.23;;
8993;SDS011;4532;50.886;4.700;2023-04-28T02:32:45;17.20;;;14.17;;
8993;SDS011;4532;50.886;4.700;2023-04-28T02:35:15;20.50;;;14.17;;
8993;SDS011;4532;50.886;4.700;2023-04-28T02:37:43;20.53;;;14.43;;
8993;SDS011;4532;50.886;4.700;2023-04-28T02:40:12;20.03;;;14.47;;
8993;SDS011;4532;50.886;4.700;2023-04-28T02:42:39;18.43;;;15.47;;
8993;SDS011;4532;50.886;4.700;2023-04-28T02:45:07;19.03;;;15.93;;
8993;SDS011;4532;50.886;4.700;2023-04-28T02:47:39;19.63;;;15.60;;
8993;SDS011;4532;50.886;4.700;2023-04-28T02:50:07;20.57;;;16.13;;
8993;SDS011;4532;50.886;4.700;2023-04-28T02:52:39;21.73;;;15.63;;
8993;SDS011;4532;50.886;4.700;2023-04-28T02:55:06;20.27;;;15.37;;
8993;SDS011;4532;50.886;4.700;2023-04-28T02:57:37;19.87;;;14.80;;
8993;SDS011;4532;50.886;4.700;2023-04-28T03:00:04;23.50;;;15.80;;
8993;SDS011;4532;50.886;4.700;2023-04-28T03:02:34;18.77;;;14.37;;
8993;SDS011;4532;50.886;4.700;2023-04-28T03:05:04;19.07;;;15.17;;
8993;SDS011;4532;50.886;4.700;2023-04-28T03:07:37;19.27;;;15.33;;
8993;SDS011;4532;50.886;4.700;2023-04-28T03:10:07;18.30;;;14.93;;
8993;SDS011;4532;50.886;4.700;2023-04-28T03:12:37;19.07;;;14.63;;
8993;SDS011;4532;50.886;4.700;2023-04-28T03:15:06;19.23;;;15.50;;
8993;SDS011;4532;50.886;4.700;2023-04-28T03:17:39;19.87;;;15.67;;
8993;SDS011;4532;50.886;4.700;2023-04-28T03:20:09;21.57;;;15.57;;
8993;SDS011;4532;50.886;4.700;2023-04-28T03:22:41;21.23;;;15.03;;
8993;SDS011;4532;50.886;4.700;2023-04-28T03:25:13;22.27;;;15.27;;
8993;SDS011;4532;50.886;4.700;2023-04-28T03:27:42;20.17;;;14.57;;
8993;SDS011;4532;50.886;4.700;2023-04-28T03:30:10;24.70;;;16.17;;
8993;SDS011;4532;50.886;4.700;2023-04-28T03:32:37;24.00;;;16.77;;
8993;SDS011;4532;50.886;4.700;2023-04-28T03:35:04;23.00;;;16.57;;
8993;SDS011;4532;50.886;4.700;2023-04-28T03:37:34;23.23;;;17.00;;
8993;SDS011;4532;50.886;4.700;2023-04-28T03:40:06;25.30;;;16.60;;
8993;SDS011;4532;50.886;4.700;2023-04-28T03:42:39;21.17;;;16.10;;
8993;SDS011;4532;50.886;4.700;2023-04-28T03:45:06;19.43;;;15.40;;
8993;SDS011;4532;50.886;4.700;2023-04-28T03:47:34;20.00;;;15.87;;
8993;SDS011;4532;50.886;4.700;2023-04-28T03:50:06;20.50;;;15.80;;
8993;SDS011;4532;50.886;4.700;2023-04-28T03:52:34;20.53;;;14.77;;
8993;SDS011;4532;50.886;4.700;2023-04-28T03:55:03;19.47;;;15.77;;
8993;SDS011;4532;50.886;4.700;2023-04-28T03:57:30;20.83;;;15.43;;
8993;SDS011;4532;50.886;4.700;2023-04-28T04:00:00;19.83;;;15.30;;
8993;SDS011;4532;50.886;4.700;2023-04-28T04:02:27;20.63;;;14.87;;
8993;SDS011;4532;50.886;4.700;2023-04-28T04:04:54;20.33;;;15.23;;
8993;SDS011;4532;50.886;4.700;2023-04-28T04:07:27;19.53;;;16.13;;
8993;SDS011;4532;50.886;4.700;2023-04-28T04:09:54;20.63;;;16.50;;
8993;SDS011;4532;50.886;4.700;2023-04-28T04:12:23;19.33;;;14.57;;
8993;SDS011;4532;50.886;4.700;2023-04-28T04:14:52;20.57;;;15.90;;
8993;SDS011;4532;50.886;4.700;2023-04-28T04:17:20;21.43;;;15.80;;
8993;SDS011;4532;50.886;4.700;2023-04-28T04:19:47;22.40;;;15.73;;
8993;SDS011;4532;50.886;4.700;2023-04-28T04:22:14;21.87;;;15.37;;
8993;SDS011;4532;50.886;4.700;2023-04-28T04:24:43;20.42;;;15.13;;
8993;SDS011;4532;50.886;4.700;2023-04-28T04:27:13;21.80;;;16.07;;
8993;SDS011;4532;50.886;4.700;2023-04-28T04:29:46;21.13;;;16.38;;
8993;SDS011;4532;50.886;4.700;2023-04-28T04:32:15;22.23;;;16.10;;
8993;SDS011;4532;50.886;4.700;2023-04-28T04:34:42;20.95;;;16.38;;
8993;SDS011;4532;50.886;4.700;2023-04-28T04:37:12;19.45;;;15.57;;
8993;SDS011;4532;50.886;4.700;2023-04-28T04:39:40;19.70;;;16.15;;
8993;SDS011;4532;50.886;4.700;2023-04-28T04:42:13;19.30;;;16.17;;
8993;SDS011;4532;50.886;4.700;2023-04-28T04:44:53;19.33;;;16.20;;
8993;SDS011;4532;50.886;4.700;2023-04-28T04:47:20;20.67;;;16.37;;
8993;SDS011;4532;50.886;4.700;2023-04-28T04:49:47;19.13;;;15.30;;
8993;SDS011;4532;50.886;4.700;2023-04-28T04:52:17;19.40;;;15.83;;
8993;SDS011;4532;50.886;4.700;2023-04-28T04:54:45;23.50;;;15.70;;
8993;SDS011;4532;50.886;4.700;2023-04-28T04:57:12;19.35;;;15.18;;
8993;SDS011;4532;50.886;4.700;2023-04-28T04:59:42;18.73;;;16.05;;
8993;SDS011;4532;50.886;4.700;2023-04-28T05:02:10;19.00;;;15.80;;
8993;SDS011;4532;50.886;4.700;2023-04-28T05:04:41;19.60;;;16.60;;
8993;SDS011;4532;50.886;4.700;2023-04-28T05:07:12;20.70;;;16.50;;
8993;SDS011;4532;50.886;4.700;2023-04-28T05:09:41;21.00;;;15.67;;
8993;SDS011;4532;50.886;4.700;2023-04-28T05:12:13;19.10;;;16.60;;
8993;SDS011;4532;50.886;4.700;2023-04-28T05:14:43;19.00;;;15.87;;
8993;SDS011;4532;50.886;4.700;2023-04-28T05:17:12;18.97;;;16.43;;
8993;SDS011;4532;50.886;4.700;2023-04-28T05:19:42;19.83;;;16.50;;
8993;SDS011;4532;50.886;4.700;2023-04-28T05:22:14;21.30;;;15.50;;
8993;SDS011;4532;50.886;4.700;2023-04-28T05:24:45;19.67;;;16.03;;
8993;SDS011;4532;50.886;4.700;2023-04-28T05:27:12;19.88;;;16.42;;
8993;SDS011;4532;50.886;4.700;2023-04-28T05:29:39;22.07;;;16.20;;
8993;SDS011;4532;50.886;4.700;2023-04-28T05:32:09;20.40;;;15.70;;
8993;SDS011;4532;50.886;4.700;2023-04-28T05:34:38;18.37;;;15.80;;
8993;SDS011;4532;50.886;4.700;2023-04-28T05:37:05;23.47;;;15.87;;
8993;SDS011;4532;50.886;4.700;2023-04-28T05:39:35;19.13;;;15.40;;
8993;SDS011;4532;50.886;4.700;2023-04-28T05:42:02;20.80;;;16.27;;
8993;SDS011;4532;50.886;4.700;2023-04-28T05:44:32;19.38;;;15.50;;
8993;SDS011;4532;50.886;4.700;2023-04-28T05:47:01;20.27;;;14.93;;
8993;SDS011;4532;50.886;4.700;2023-04-28T05:49:28;20.10;;;16.25;;
8993;SDS011;4532;50.886;4.700;2023-04-28T05:52:00;19.13;;;16.20;;
8993;SDS011;4532;50.886;4.700;2023-04-28T05:54:27;19.77;;;15.00;;
8993;SDS011;4532;50.886;4.700;2023-04-28T05:56:59;18.63;;;15.23;;
8993;SDS011;4532;50.886;4.700;2023-04-28T05:59:29;18.15;;;15.73;;
8993;SDS011;4532;50.886;4.700;2023-04-28T06:02:01;18.97;;;15.47;;
8993;SDS011;4532;50.886;4.700;2023-04-28T06:04:33;19.00;;;15.97;;
8993;SDS011;4532;50.886;4.700;2023-04-28T06:07:03;18.63;;;15.60;;
8993;SDS011;4532;50.886;4.700;2023-04-28T06:09:30;20.90;;;16.03;;
8993;SDS011;4532;50.886;4.700;2023-04-28T06:12:00;21.00;;;16.50;;
8993;SDS011;4532;50.886;4.700;2023-04-28T06:14:27;19.20;;;15.70;;
8993;SDS011;4532;50.886;4.700;2023-04-28T06:16:59;20.07;;;16.70;;
8993;SDS011;4532;50.886;4.700;2023-04-28T06:19:26;19.50;;;15.30;;
8993;SDS011;4532;50.886;4.700;2023-04-28T06:21:53;18.83;;;15.40;;
8993;SDS011;4532;50.886;4.700;2023-04-28T06:24:22;20.70;;;16.67;;
8993;SDS011;4532;50.886;4.700;2023-04-28T06:26:57;28.80;;;17.77;;
8993;SDS011;4532;50.886;4.700;2023-04-28T06:29:27;21.15;;;16.33;;
8993;SDS011;4532;50.886;4.700;2023-04-28T06:31:59;23.33;;;17.00;;
8993;SDS011;4532;50.886;4.700;2023-04-28T06:34:29;21.52;;;16.38;;
8993;SDS011;4532;50.886;4.700;2023-04-28T06:36:57;25.57;;;17.13;;
8993;SDS011;4532;50.886;4.700;2023-04-28T06:39:29;22.70;;;16.77;;
8993;SDS011;4532;50.886;4.700;2023-04-28T06:41:59;26.43;;;17.57;;
8993;SDS011;4532;50.886;4.700;2023-04-28T06:44:30;23.47;;;17.00;;
8993;SDS011;4532;50.886;4.700;2023-04-28T06:47:02;21.90;;;17.05;;
8993;SDS011;4532;50.886;4.700;2023-04-28T06:49:31;23.52;;;16.80;;
8993;SDS011;4532;50.886;4.700;2023-04-28T06:52:03;20.17;;;15.65;;
8993;SDS011;4532;50.886;4.700;2023-04-28T06:54:31;24.05;;;15.52;;
8993;SDS011;4532;50.886;4.700;2023-04-28T06:57:00;26.83;;;14.93;;
8993;SDS011;4532;50.886;4.700;2023-04-28T06:59:27;19.70;;;15.52;;
8993;SDS011;4532;50.886;4.700;2023-04-28T07:01:54;23.50;;;15.38;;
8993;SDS011;4532;50.886;4.700;2023-04-28T07:04:22;28.03;;;16.70;;
8993;SDS011;4532;50.886;4.700;2023-04-28T07:06:54;18.48;;;13.95;;
8993;SDS011;4532;50.886;4.700;2023-04-28T07:09:24;18.92;;;13.55;;
8993;SDS011;4532;50.886;4.700;2023-04-28T07:11:51;21.17;;;14.07;;
8993;SDS011;4532;50.886;4.700;2023-04-28T07:14:21;22.48;;;14.68;;
8993;SDS011;4532;50.886;4.700;2023-04-28T07:16:48;29.70;;;14.05;;
8993;SDS011;4532;50.886;4.700;2023-04-28T07:19:18;19.00;;;13.45;;
8993;SDS011;4532;50.886;4.700;2023-04-28T07:21:49;18.52;;;11.80;;
8993;SDS011;4532;50.886;4.700;2023-04-28T07:24:19;14.70;;;11.93;;
8993;SDS011;4532;50.886;4.700;2023-04-28T07:26:46;13.82;;;10.43;;
8993;SDS011;4532;50.886;4.700;2023-04-28T07:29:18;18.05;;;10.55;;
8993;SDS011;4532;50.886;4.700;2023-04-28T07:31:48;16.55;;;10.25;;
8993;SDS011;4532;50.886;4.700;2023-04-28T07:34:18;12.57;;;8.47;;
8993;SDS011;4532;50.886;4.700;2023-04-28T07:36:45;16.48;;;7.90;;
8993;SDS011;4532;50.886;4.700;2023-04-28T07:39:12;7.90;;;4.35;;
8993;SDS011;4532;50.886;4.700;2023-04-28T07:41:39;4.30;;;3.40;;
8993;SDS011;4532;50.886;4.700;2023-04-28T07:44:09;3.38;;;2.47;;
8993;SDS011;4532;50.886;4.700;2023-04-28T07:46:36;5.15;;;2.60;;
8993;SDS011;4532;50.886;4.700;2023-04-28T07:49:03;2.17;;;1.98;;
8993;SDS011;4532;50.886;4.700;2023-04-28T07:51:31;3.97;;;2.17;;
8993;SDS011;4532;50.886;4.700;2023-04-28T07:54:00;3.60;;;2.33;;
8993;SDS011;4532;50.886;4.700;2023-04-28T07:56:31;2.40;;;2.20;;
8993;SDS011;4532;50.886;4.700;2023-04-28T07:59:02;4.25;;;2.28;;
8993;SDS011;4532;50.886;4.700;2023-04-28T08:01:29;4.32;;;2.35;;
8993;SDS011;4532;50.886;4.700;2023-04-28T08:03:59;4.70;;;2.40;;
8993;SDS011;4532;50.886;4.700;2023-04-28T08:06:27;3.13;;;2.25;;
8993;SDS011;4532;50.886;4.700;2023-04-28T08:08:57;2.42;;;2.22;;
8993;SDS011;4532;50.886;4.700;2023-04-28T08:11:24;6.43;;;2.35;;
8993;SDS011;4532;50.886;4.700;2023-04-28T08:13:58;3.47;;;2.20;;
8993;SDS011;4532;50.886;4.700;2023-04-28T08:16:31;2.15;;;1.95;;
8993;SDS011;4532;50.886;4.700;2023-04-28T08:19:03;2.17;;;1.92;;
8993;SDS011;4532;50.886;4.700;2023-04-28T08:21:31;2.10;;;1.85;;
8993;SDS011;4532;50.886;4.700;2023-04-28T08:24:03;3.83;;;1.70;;
8993;SDS011;4532;50.886;4.700;2023-04-28T08:26:30;7.38;;;2.78;;
8993;SDS011;4532;50.886;4.700;2023-04-28T08:29:00;3.25;;;1.65;;
8993;SDS011;4532;50.886;4.700;2023-04-28T08:31:29;1.45;;;1.30;;
8993;SDS011;4532;50.886;4.700;2023-04-28T08:33:57;1.67;;;1.30;;
8993;SDS011;4532;50.886;4.700;2023-04-28T08:36:26;1.38;;;1.27;;
8993;SDS011;4532;50.886;4.700;2023-04-28T08:39:00;17.80;;;3.80;;
8993;SDS011;4532;50.886;4.700;2023-04-28T08:41:31;13.73;;;3.75;;
8993;SDS011;4532;50.886;4.700;2023-04-28T08:44:01;14.80;;;2.80;;
8993;SDS011;4532;50.886;4.700;2023-04-28T08:46:30;1.45;;;1.35;;
8993;SDS011;4532;50.886;4.700;2023-04-28T08:49:00;10.77;;;2.60;;
8993;SDS011;4532;50.886;4.700;2023-04-28T08:51:32;5.43;;;2.38;;
8993;SDS011;4532;50.886;4.700;2023-04-28T08:54:09;10.23;;;1.90;;
8993;SDS011;4532;50.886;4.700;2023-04-28T08:56:58;4.65;;;1.02;;
8993;SDS011;4532;50.886;4.700;2023-04-28T08:59:25;12.27;;;2.70;;
8993;SDS011;4532;50.886;4.700;2023-04-28T09:01:56;4.75;;;1.30;;
8993;SDS011;4532;50.886;4.700;2023-04-28T09:04:24;1.90;;;0.80;;
8993;SDS011;4532;50.886;4.700;2023-04-28T09:06:57;4.45;;;1.40;;
8993;SDS011;4532;50.886;4.700;2023-04-28T09:09:30;3.40;;;1.10;;
8993;SDS011;4532;50.886;4.700;2023-04-28T09:12:02;9.77;;;2.08;;
8993;SDS011;4532;50.886;4.700;2023-04-28T09:14:33;2.90;;;0.70;;
8993;SDS011;4532;50.886;4.700;2023-04-28T09:17:13;0.90;;;0.70;;
8993;SDS011;4532;50.886;4.700;2023-04-28T09:19:43;1.33;;;0.77;;
8993;SDS011;4532;50.886;4.700;2023-04-28T09:22:15;0.73;;;0.70;;
8993;SDS011;4532;50.886;4.700;2023-04-28T09:24:52;3.75;;;1.27;;
8993;SDS011;4532;50.886;4.700;2023-04-28T09:27:27;6.88;;;1.60;;
8993;SDS011;4532;50.886;4.700;2023-04-28T09:30:01;3.67;;;1.10;;
8993;SDS011;4532;50.886;4.700;2023-04-28T09:32:31;4.28;;;0.80;;
8993;SDS011;4532;50.886;4.700;2023-04-28T09:35:02;2.22;;;0.90;;
8993;SDS011;4532;50.886;4.700;2023-04-28T09:37:33;0.80;;;0.80;;
8993;SDS011;4532;50.886;4.700;2023-04-28T09:40:08;6.25;;;1.98;;
8993;SDS011;4532;50.886;4.700;2023-04-28T09:42:38;4.03;;;1.25;;
8993;SDS011;4532;50.886;4.700;2023-04-28T09:45:10;8.00;;;1.35;;
8993;SDS011;4532;50.886;4.700;2023-04-28T09:47:42;6.00;;;2.10;;
8993;SDS011;4532;50.886;4.700;2023-04-28T09:50:12;6.18;;;2.05;;
8993;SDS011;4532;50.886;4.700;2023-04-28T09:52:42;2.63;;;1.17;;
8993;SDS011;4532;50.886;4.700;2023-04-28T09:55:14;1.30;;;1.00;;
8993;SDS011;4532;50.886;4.700;2023-04-28T09:57:45;1.90;;;1.63;;
8993;SDS011;4532;50.886;4.700;2023-04-28T10:00:22;3.42;;;1.77;;
8993;SDS011;4532;50.886;4.700;2023-04-28T10:02:52;6.72;;;2.10;;
8993;SDS011;4532;50.886;4.700;2023-04-28T10:05:22;3.67;;;1.90;;
8993;SDS011;4532;50.886;4.700;2023-04-28T10:07:52;2.50;;;2.17;;
8993;SDS011;4532;50.886;4.700;2023-04-28T10:10:23;2.10;;;1.90;;
8993;SDS011;4532;50.886;4.700;2023-04-28T10:12:55;2.08;;;1.58;;
8993;SDS011;4532;50.886;4.700;2023-04-28T10:15:31;2.72;;;2.15;;
8993;SDS011;4532;50.886;4.700;2023-04-28T10:18:01;2.67;;;1.73;;
8993;SDS011;4532;50.886;4.700;2023-04-28T10:20:31;2.25;;;1.90;;
8993;SDS011;4532;50.886;4.700;2023-04-28T10:23:26;5.25;;;2.38;;
8993;SDS011;4532;50.886;4.700;2023-04-28T10:25:51;5.57;;;1.98;;
8993;SDS011;4532;50.886;4.700;2023-04-28T10:28:25;2.83;;;1.98;;
8993;SDS011;4532;50.886;4.700;2023-04-28T10:31:13;1.70;;;1.60;;
8993;SDS011;4532;50.886;4.700;2023-04-28T10:33:44;2.75;;;2.20;;
8993;SDS011;4532;50.886;4.700;2023-04-28T10:36:46;2.70;;;2.50;;
8993;SDS011;4532;50.886;4.700;2023-04-28T10:39:21;2.95;;;2.65;;
8993;SDS011;4532;50.886;4.700;2023-04-28T10:41:48;3.50;;;3.20;;
8993;SDS011;4532;50.886;4.700;2023-04-28T10:58:48;2.17;;;1.83;;
8993;SDS011;4532;50.886;4.700;2023-04-28T11:00:55;4.30;;;1.70;;
8993;SDS011;4532;50.886;4.700;2023-04-28T11:03:56;2.53;;;1.33;;
8993;SDS011;4532;50.886;4.700;2023-04-28T11:16:52;1.08;;;0.80;;
8993;SDS011;4532;50.886;4.700;2023-04-28T11:19:32;2.05;;;1.00;;
8993;SDS011;4532;50.886;4.700;2023-04-28T11:22:04;1.00;;;1.00;;
8993;SDS011;4532;50.886;4.700;2023-04-28T11:24:38;1.88;;;0.85;;
8993;SDS011;4532;50.886;4.700;2023-04-28T11:27:23;3.08;;;1.02;;
8993;SDS011;4532;50.886;4.700;2023-04-28T11:29:56;3.20;;;1.52;;
8993;SDS011;4532;50.886;4.700;2023-04-28T11:32:33;2.03;;;1.40;;
8993;SDS011;4532;50.886;4.700;2023-04-28T11:35:03;1.55;;;1.00;;
8993;SDS011;4532;50.886;4.700;2023-04-28T11:37:37;7.97;;;1.73;;
8993;SDS011;4532;50.886;4.700;2023-04-28T11:40:11;5.20;;;1.63;;
8993;SDS011;4532;50.886;4.700;2023-04-28T11:42:48;1.40;;;1.17;;
8993;SDS011;4532;50.886;4.700;2023-04-28T11:45:15;1.17;;;1.08;;
8993;SDS011;4532;50.886;4.700;2023-04-28T11:47:45;0.98;;;0.90;;
8993;SDS011;4532;50.886;4.700;2023-04-28T11:50:12;1.45;;;1.20;;
8993;SDS011;4532;50.886;4.700;2023-04-28T11:52:49;3.95;;;1.65;;
8993;SDS011;4532;50.886;4.700;2023-04-28T11:55:19;2.63;;;2.00;;
8993;SDS011;4532;50.886;4.700;2023-04-28T12:01:09;2.13;;;2.00;;
8993;SDS011;4532;50.886;4.700;2023-04-28T12:03:46;2.25;;;1.95;;
8993;SDS011;4532;50.886;4.700;2023-04-28T12:06:17;6.45;;;2.80;;
8993;SDS011;4532;50.886;4.700;2023-04-28T12:08:49;2.95;;;2.20;;
8993;SDS011;4532;50.886;4.700;2023-04-28T12:11:21;2.50;;;2.30;;
8993;SDS011;4532;50.886;4.700;2023-04-28T12:14:06;2.33;;;2.13;;
8993;SDS011;4532;50.886;4.700;2023-04-28T12:16:40;2.00;;;1.90;;
8993;SDS011;4532;50.886;4.700;2023-04-28T12:19:10;1.95;;;1.75;;
8993;SDS011;4532;50.886;4.700;2023-04-28T12:21:40;2.03;;;1.45;;
8993;SDS011;4532;50.886;4.700;2023-04-28T12:24:20;7.40;;;1.48;;
8993;SDS011;4532;50.886;4.700;2023-04-28T12:26:51;3.67;;;1.88;;
8993;SDS011;4532;50.886;4.700;2023-04-28T12:29:36;2.03;;;1.23;;
8993;SDS011;4532;50.886;4.700;2023-04-28T12:32:05;1.67;;;1.58;;
8993;SDS011;4532;50.886;4.700;2023-04-28T12:34:36;4.38;;;2.05;;
8993;SDS011;4532;50.886;4.700;2023-04-28T12:37:05;3.75;;;1.50;;
8993;SDS011;4532;50.886;4.700;2023-04-28T12:39:35;2.95;;;1.38;;
8993;SDS011;4532;50.886;4.700;2023-04-28T12:42:07;6.35;;;2.22;;
8993;SDS011;4532;50.886;4.700;2023-04-28T12:44:35;1.67;;;1.20;;
8993;SDS011;4532;50.886;4.700;2023-04-28T12:47:08;3.72;;;1.20;;
8993;SDS011;4532;50.886;4.700;2023-04-28T12:49:42;1.42;;;0.95;;
8993;SDS011;4532;50.886;4.700;2023-04-28T12:52:12;2.53;;;1.08;;
8993;SDS011;4532;50.886;4.700;2023-04-28T12:54:39;4.50;;;1.17;;
8993;SDS011;4532;50.886;4.700;2023-04-28T12:57:15;3.30;;;1.00;;
8993;SDS011;4532;50.886;4.700;2023-04-28T12:59:45;4.13;;;1.13;;
8993;SDS011;4532;50.886;4.700;2023-04-28T13:02:17;1.85;;;0.70;;
8993;SDS011;4532;50.886;4.700;2023-04-28T13:04:45;10.82;;;1.98;;
8993;SDS011;4532;50.886;4.700;2023-04-28T13:07:17;0.60;;;0.60;;
8993;SDS011;4532;50.886;4.700;2023-04-28T13:09:47;1.40;;;0.80;;
8993;SDS011;4532;50.886;4.700;2023-04-28T13:12:14;1.45;;;0.70;;
8993;SDS011;4532;50.886;4.700;2023-04-28T13:14:42;1.08;;;0.82;;
8993;SDS011;4532;50.886;4.700;2023-04-28T13:17:09;7.75;;;1.73;;
8993;SDS011;4532;50.886;4.700;2023-04-28T13:19:38;1.27;;;0.60;;
8993;SDS011;4532;50.886;4.700;2023-04-28T13:22:11;2.70;;;1.10;;
8993;SDS011;4532;50.886;4.700;2023-04-28T13:24:41;4.63;;;0.98;;
8993;SDS011;4532;50.886;4.700;2023-04-28T13:27:11;2.97;;;0.90;;
8993;SDS011;4532;50.886;4.700;2023-04-28T13:29:43;0.88;;;0.73;;
8993;SDS011;4532;50.886;4.700;2023-04-28T13:32:10;3.50;;;0.88;;
8993;SDS011;4532;50.886;4.700;2023-04-28T13:34:39;5.68;;;1.55;;
8993;SDS011;4532;50.886;4.700;2023-04-28T13:37:06;1.15;;;0.90;;
8993;SDS011;4532;50.886;4.700;2023-04-28T13:39:36;4.93;;;1.40;;
8993;SDS011;4532;50.886;4.700;2023-04-28T13:42:06;4.93;;;1.20;;
8993;SDS011;4532;50.886;4.700;2023-04-28T13:44:35;3.80;;;1.50;;
8993;SDS011;4532;50.886;4.700;2023-04-28T13:47:02;1.33;;;0.60;;
8993;SDS011;4532;50.886;4.700;2023-04-28T13:49:34;2.50;;;0.80;;
8993;SDS011;4532;50.886;4.700;2023-04-28T13:52:05;1.00;;;0.90;;
8993;SDS011;4532;50.886;4.700;2023-04-28T13:54:32;0.85;;;0.80;;
8993;SDS011;4532;50.886;4.700;2023-04-28T13:56:59;8.30;;;1.65;;
8993;SDS011;4532;50.886;4.700;2023-04-28T13:59:29;3.15;;;1.40;;
8993;SDS011;4532;50.886;4.700;2023-04-28T14:01:58;1.83;;;0.80;;
8993;SDS011;4532;50.886;4.700;2023-04-28T14:04:26;1.35;;;0.73;;
8993;SDS011;4532;50.886;4.700;2023-04-28T14:06:53;4.35;;;1.27;;
8993;SDS011;4532;50.886;4.700;2023-04-28T14:09:25;3.25;;;1.15;;
8993;SDS011;4532;50.886;4.700;2023-04-28T14:11:53;0.88;;;0.77;;
8993;SDS011;4532;50.886;4.700;2023-04-28T14:14:27;3.10;;;1.33;;
8993;SDS011;4532;50.886;4.700;2023-04-28T14:17:00;5.72;;;1.23;;
8993;SDS011;4532;50.886;4.700;2023-04-28T14:19:31;1.30;;;0.88;;
8993;SDS011;4532;50.886;4.700;2023-04-28T14:22:02;1.77;;;0.82;;
8993;SDS011;4532;50.886;4.700;2023-04-28T14:24:31;0.98;;;0.80;;
8993;SDS011;4532;50.886;4.700;2023-04-28T14:27:03;1.48;;;0.70;;
8993;SDS011;4532;50.886;4.700;2023-04-28T14:29:31;1.30;;;0.70;;
8993;SDS011;4532;50.886;4.700;2023-04-28T14:32:01;1.58;;;1.02;;
8993;SDS011;4532;50.886;4.700;2023-04-28T14:34:28;1.00;;;0.90;;
8993;SDS011;4532;50.886;4.700;2023-04-28T14:36:57;1.02;;;0.93;;
8993;SDS011;4532;50.886;4.700;2023-04-28T14:39:27;2.78;;;1.67;;
8993;SDS011;4532;50.886;4.700;2023-04-28T14:41:54;2.35;;;1.17;;
8993;SDS011;4532;50.886;4.700;2023-04-28T14:44:21;2.88;;;1.50;;
8993;SDS011;4532;50.886;4.700;2023-04-28T14:46:49;1.35;;;1.05;;
8993;SDS011;4532;50.886;4.700;2023-04-28T14:49:20;1.33;;;1.17;;
8993;SDS011;4532;50.886;4.700;2023-04-28T14:51:48;3.20;;;1.65;;
8993;SDS011;4532;50.886;4.700;2023-04-28T14:54:15;1.67;;;0.88;;
8993;SDS011;4532;50.886;4.700;2023-04-28T14:56:43;1.17;;;0.80;;
8993;SDS011;4532;50.886;4.700;2023-04-28T14:59:12;3.45;;;0.95;;
8993;SDS011;4532;50.886;4.700;2023-04-28T15:01:41;2.80;;;1.00;;
8993;SDS011;4532;50.886;4.700;2023-04-28T15:04:09;2.28;;;0.80;;
8993;SDS011;4532;50.886;4.700;2023-04-28T15:06:36;1.33;;;0.80;;
8993;SDS011;4532;50.886;4.700;2023-04-28T15:09:06;1.73;;;0.80;;
8993;SDS011;4532;50.886;4.700;2023-04-28T15:11:36;1.65;;;0.70;;
8993;SDS011;4532;50.886;4.700;2023-04-28T15:14:05;0.70;;;0.70;;
8993;SDS011;4532;50.886;4.700;2023-04-28T15:16:32;1.08;;;0.80;;
8993;SDS011;4532;50.886;4.700;2023-04-28T15:19:02;1.17;;;0.70;;
8993;SDS011;4532;50.886;4.700;2023-04-28T15:21:29;1.63;;;0.80;;
8993;SDS011;4532;50.886;4.700;2023-04-28T15:23:59;0.90;;;0.70;;
8993;SDS011;4532;50.886;4.700;2023-04-28T15:26:28;0.63;;;0.47;;
8993;SDS011;4532;50.886;4.700;2023-04-28T15:28:56;0.85;;;0.50;;
8993;SDS011;4532;50.886;4.700;2023-04-28T15:31:28;0.60;;;0.60;;
8993;SDS011;4532;50.886;4.700;2023-04-28T15:33:55;0.57;;;0.40;;
8993;SDS011;4532;50.886;4.700;2023-04-28T15:36:22;1.20;;;0.80;;
8993;SDS011;4532;50.886;4.700;2023-04-28T15:38:52;0.85;;;0.50;;
8993;SDS011;4532;50.886;4.700;2023-04-28T15:41:21;0.70;;;0.70;;
8993;SDS011;4532;50.886;4.700;2023-04-28T15:43:53;1.00;;;0.60;;
8993;SDS011;4532;50.886;4.700;2023-04-28T15:46:21;1.15;;;0.60;;